sensor_id;sensor_type;location;lat;lon;timestamp;P1;durP1;ratioP1;P2;durP2;ratioP2
9948;SDS011;5013;51.840;8.276;2024-02-28T00:00:54;70.27;;;39.13;;
9948;SDS011;5013;51.840;8.276;2024-02-28T00:03:20;63.77;;;37.20;;
9948;SDS011;5013;51.840;8.276;2024-02-28T00:05:46;61.93;;;38.40;;
9948;SDS011;5013;51.840;8.276;2024-02-28T00:08:13;74.40;;;42.80;;
9948;SDS011;5013;51.840;8.276;2024-02-28T00:10:38;70.90;;;42.50;;
9948;SDS011;5013;51.840;8.276;2024-02-28T00:13:04;67.63;;;39.03;;
9948;SDS011;5013;51.840;8.276;2024-02-28T00:15:29;62.40;;;37.87;;
9948;SDS011;5013;51.840;8.276;2024-02-28T00:17:55;72.63;;;42.70;;
9948;SDS011;5013;51.840;8.276;2024-02-28T00:20:20;72.57;;;41.93;;
9948;SDS011;5013;51.840;8.276;2024-02-28T00:22:46;73.30;;;41.03;;
9948;SDS011;5013;51.840;8.276;2024-02-28T00:25:12;66.00;;;38.27;;
9948;SDS011;5013;51.840;8.276;2024-02-28T00:27:38;67.67;;;40.50;;
9948;SDS011;5013;51.840;8.276;2024-02-28T00:30:04;69.97;;;41.47;;
9948;SDS011;5013;51.840;8.276;2024-02-28T00:32:33;70.60;;;41.07;;
9948;SDS011;5013;51.840;8.276;2024-02-28T00:34:59;74.63;;;39.97;;
9948;SDS011;5013;51.840;8.276;2024-02-28T00:37:24;66.83;;;39.00;;
9948;SDS011;5013;51.840;8.276;2024-02-28T00:39:50;70.03;;;39.97;;
9948;SDS011;5013;51.840;8.276;2024-02-28T00:42:16;60.40;;;36.47;;
9948;SDS011;5013;51.840;8.276;2024-02-28T00:44:41;67.17;;;38.83;;
9948;SDS011;5013;51.840;8.276;2024-02-28T00:47:07;65.03;;;37.80;;
9948;SDS011;5013;51.840;8.276;2024-02-28T00:49:33;61.20;;;37.83;;
9948;SDS011;5013;51.840;8.276;2024-02-28T00:52:00;60.37;;;35.83;;
9948;SDS011;5013;51.840;8.276;2024-02-28T00:54:25;62.70;;;39.13;;
9948;SDS011;5013;51.840;8.276;2024-02-28T00:56:51;63.40;;;37.27;;
9948;SDS011;5013;51.840;8.276;2024-02-28T00:59:16;63.50;;;36.17;;
9948;SDS011;5013;51.840;8.276;2024-02-28T01:01:42;59.17;;;36.37;;
9948;SDS011;5013;51.840;8.276;2024-02-28T01:04:07;61.63;;;36.17;;
9948;SDS011;5013;51.840;8.276;2024-02-28T01:06:33;58.87;;;36.80;;
9948;SDS011;5013;51.840;8.276;2024-02-28T01:08:59;60.23;;;37.03;;
9948;SDS011;5013;51.840;8.276;2024-02-28T01:11:24;59.97;;;38.37;;
9948;SDS011;5013;51.840;8.276;2024-02-28T01:13:50;56.03;;;36.20;;
9948;SDS011;5013;51.840;8.276;2024-02-28T01:16:16;57.00;;;35.53;;
9948;SDS011;5013;51.840;8.276;2024-02-28T01:18:41;62.00;;;34.87;;
9948;SDS011;5013;51.840;8.276;2024-02-28T01:21:07;55.83;;;33.57;;
9948;SDS011;5013;51.840;8.276;2024-02-28T01:23:33;54.77;;;33.17;;
9948;SDS011;5013;51.840;8.276;2024-02-28T01:25:58;53.70;;;33.40;;
9948;SDS011;5013;51.840;8.276;2024-02-28T01:28:24;54.23;;;34.47;;
9948;SDS011;5013;51.840;8.276;2024-02-28T01:30:49;56.20;;;32.80;;
9948;SDS011;5013;51.840;8.276;2024-02-28T01:33:15;62.23;;;32.70;;
9948;SDS011;5013;51.840;8.276;2024-02-28T01:35:40;57.10;;;33.57;;
9948;SDS011;5013;51.840;8.276;2024-02-28T01:38:06;53.97;;;33.53;;
9948;SDS011;5013;51.840;8.276;2024-02-28T01:40:32;58.80;;;33.50;;
9948;SDS011;5013;51.840;8.276;2024-02-28T01:43:04;52.40;;;32.33;;
9948;SDS011;5013;51.840;8.276;2024-02-28T01:45:32;53.90;;;33.17;;
9948;SDS011;5013;51.840;8.276;2024-02-28T01:47:58;55.13;;;33.07;;
9948;SDS011;5013;51.840;8.276;2024-02-28T01:50:24;59.00;;;34.50;;
9948;SDS011;5013;51.840;8.276;2024-02-28T01:52:49;58.17;;;34.27;;
9948;SDS011;5013;51.840;8.276;2024-02-28T01:55:15;56.83;;;34.17;;
9948;SDS011;5013;51.840;8.276;2024-02-28T01:57:41;55.43;;;33.07;;
9948;SDS011;5013;51.840;8.276;2024-02-28T02:00:06;62.33;;;36.83;;
9948;SDS011;5013;51.840;8.276;2024-02-28T02:02:35;57.10;;;34.40;;
9948;SDS011;5013;51.840;8.276;2024-02-28T02:05:02;52.23;;;33.33;;
9948;SDS011;5013;51.840;8.276;2024-02-28T02:07:27;56.57;;;34.10;;
9948;SDS011;5013;51.840;8.276;2024-02-28T02:09:53;52.57;;;32.47;;
9948;SDS011;5013;51.840;8.276;2024-02-28T02:12:19;54.57;;;33.00;;
9948;SDS011;5013;51.840;8.276;2024-02-28T02:14:48;56.27;;;32.47;;
9948;SDS011;5013;51.840;8.276;2024-02-28T02:17:14;54.70;;;32.63;;
9948;SDS011;5013;51.840;8.276;2024-02-28T02:19:39;58.10;;;35.57;;
9948;SDS011;5013;51.840;8.276;2024-02-28T02:22:05;55.37;;;35.23;;
9948;SDS011;5013;51.840;8.276;2024-02-28T02:24:33;55.87;;;34.97;;
9948;SDS011;5013;51.840;8.276;2024-02-28T02:26:59;58.13;;;34.03;;
9948;SDS011;5013;51.840;8.276;2024-02-28T02:29:25;56.07;;;34.20;;
9948;SDS011;5013;51.840;8.276;2024-02-28T02:31:52;59.17;;;34.57;;
9948;SDS011;5013;51.840;8.276;2024-02-28T02:34:18;50.77;;;30.73;;
9948;SDS011;5013;51.840;8.276;2024-02-28T02:36:43;55.80;;;32.63;;
9948;SDS011;5013;51.840;8.276;2024-02-28T02:39:09;52.53;;;31.97;;
9948;SDS011;5013;51.840;8.276;2024-02-28T02:41:34;51.30;;;32.27;;
9948;SDS011;5013;51.840;8.276;2024-02-28T02:44:00;52.63;;;32.23;;
9948;SDS011;5013;51.840;8.276;2024-02-28T02:46:25;53.67;;;32.83;;
9948;SDS011;5013;51.840;8.276;2024-02-28T02:48:51;52.63;;;32.33;;
9948;SDS011;5013;51.840;8.276;2024-02-28T02:51:18;54.37;;;32.63;;
9948;SDS011;5013;51.840;8.276;2024-02-28T02:53:44;55.33;;;31.13;;
9948;SDS011;5013;51.840;8.276;2024-02-28T02:59:32;54.57;;;31.57;;
9948;SDS011;5013;51.840;8.276;2024-02-28T03:01:57;54.23;;;33.90;;
9948;SDS011;5013;51.840;8.276;2024-02-28T03:04:23;54.20;;;32.57;;
9948;SDS011;5013;51.840;8.276;2024-02-28T03:06:48;58.50;;;32.60;;
9948;SDS011;5013;51.840;8.276;2024-02-28T03:09:14;54.50;;;32.90;;
9948;SDS011;5013;51.840;8.276;2024-02-28T03:11:39;77.50;;;35.63;;
9948;SDS011;5013;51.840;8.276;2024-02-28T03:14:05;108.07;;;36.70;;
9948;SDS011;5013;51.840;8.276;2024-02-28T03:16:30;583.83;;;51.83;;
9948;SDS011;5013;51.840;8.276;2024-02-28T03:18:56;218.23;;;46.00;;
9948;SDS011;5013;51.840;8.276;2024-02-28T03:21:22;380.97;;;49.10;;
9948;SDS011;5013;51.840;8.276;2024-02-28T03:23:47;514.27;;;53.33;;
9948;SDS011;5013;51.840;8.276;2024-02-28T03:26:13;309.97;;;45.70;;
9948;SDS011;5013;51.840;8.276;2024-02-28T03:28:38;385.13;;;49.40;;
9948;SDS011;5013;51.840;8.276;2024-02-28T03:31:04;314.03;;;44.53;;
9948;SDS011;5013;51.840;8.276;2024-02-28T03:33:29;325.90;;;43.20;;
9948;SDS011;5013;51.840;8.276;2024-02-28T03:35:57;402.00;;;45.83;;
9948;SDS011;5013;51.840;8.276;2024-02-28T03:38:23;176.07;;;38.43;;
9948;SDS011;5013;51.840;8.276;2024-02-28T03:40:48;345.77;;;41.90;;
9948;SDS011;5013;51.840;8.276;2024-02-28T03:43:14;235.23;;;37.13;;
9948;SDS011;5013;51.840;8.276;2024-02-28T03:45:40;218.10;;;39.80;;
9948;SDS011;5013;51.840;8.276;2024-02-28T03:48:05;233.93;;;37.90;;
9948;SDS011;5013;51.840;8.276;2024-02-28T03:50:31;101.23;;;35.50;;
9948;SDS011;5013;51.840;8.276;2024-02-28T03:52:57;81.77;;;32.43;;
9948;SDS011;5013;51.840;8.276;2024-02-28T03:55:22;68.33;;;30.30;;
9948;SDS011;5013;51.840;8.276;2024-02-28T03:57:48;246.50;;;35.00;;
9948;SDS011;5013;51.840;8.276;2024-02-28T04:00:16;397.80;;;35.53;;
9948;SDS011;5013;51.840;8.276;2024-02-28T04:02:42;192.10;;;32.10;;
9948;SDS011;5013;51.840;8.276;2024-02-28T04:05:08;233.07;;;32.77;;
9948;SDS011;5013;51.840;8.276;2024-02-28T04:07:33;312.90;;;34.57;;
9948;SDS011;5013;51.840;8.276;2024-02-28T04:09:59;401.10;;;38.40;;
9948;SDS011;5013;51.840;8.276;2024-02-28T04:12:24;226.93;;;33.47;;
9948;SDS011;5013;51.840;8.276;2024-02-28T04:14:50;199.57;;;34.90;;
9948;SDS011;5013;51.840;8.276;2024-02-28T04:17:16;139.20;;;34.63;;
9948;SDS011;5013;51.840;8.276;2024-02-28T04:19:41;136.57;;;32.97;;
9948;SDS011;5013;51.840;8.276;2024-02-28T04:22:07;93.73;;;32.07;;
9948;SDS011;5013;51.840;8.276;2024-02-28T04:24:32;52.37;;;30.23;;
9948;SDS011;5013;51.840;8.276;2024-02-28T04:26:58;178.23;;;35.97;;
9948;SDS011;5013;51.840;8.276;2024-02-28T04:29:24;94.67;;;33.27;;
9948;SDS011;5013;51.840;8.276;2024-02-28T04:31:53;170.07;;;36.07;;
9948;SDS011;5013;51.840;8.276;2024-02-28T04:34:19;108.43;;;33.60;;
9948;SDS011;5013;51.840;8.276;2024-02-28T04:36:44;119.80;;;33.70;;
9948;SDS011;5013;51.840;8.276;2024-02-28T04:39:10;130.67;;;33.10;;
9948;SDS011;5013;51.840;8.276;2024-02-28T04:41:35;250.40;;;40.87;;
9948;SDS011;5013;51.840;8.276;2024-02-28T04:44:01;201.90;;;38.67;;
9948;SDS011;5013;51.840;8.276;2024-02-28T04:46:26;161.97;;;38.33;;
9948;SDS011;5013;51.840;8.276;2024-02-28T04:48:52;104.73;;;35.90;;
9948;SDS011;5013;51.840;8.276;2024-02-28T04:51:18;134.73;;;37.40;;
9948;SDS011;5013;51.840;8.276;2024-02-28T04:53:43;201.97;;;40.23;;
9948;SDS011;5013;51.840;8.276;2024-02-28T04:56:09;155.60;;;39.30;;
9948;SDS011;5013;51.840;8.276;2024-02-28T04:58:35;229.17;;;42.43;;
9948;SDS011;5013;51.840;8.276;2024-02-28T05:01:01;121.53;;;38.23;;
9948;SDS011;5013;51.840;8.276;2024-02-28T05:03:27;109.17;;;38.13;;
9948;SDS011;5013;51.840;8.276;2024-02-28T05:05:53;118.50;;;37.40;;
9948;SDS011;5013;51.840;8.276;2024-02-28T05:08:19;147.47;;;37.77;;
9948;SDS011;5013;51.840;8.276;2024-02-28T05:10:45;165.27;;;39.17;;
9948;SDS011;5013;51.840;8.276;2024-02-28T05:13:11;93.33;;;37.37;;
9948;SDS011;5013;51.840;8.276;2024-02-28T05:15:37;110.50;;;39.07;;
9948;SDS011;5013;51.840;8.276;2024-02-28T05:18:03;202.07;;;41.77;;
9948;SDS011;5013;51.840;8.276;2024-02-28T05:20:28;103.80;;;38.33;;
9948;SDS011;5013;51.840;8.276;2024-02-28T05:22:54;89.23;;;37.10;;
9948;SDS011;5013;51.840;8.276;2024-02-28T05:25:19;96.93;;;37.43;;
9948;SDS011;5013;51.840;8.276;2024-02-28T05:27:45;105.80;;;38.00;;
9948;SDS011;5013;51.840;8.276;2024-02-28T05:30:11;234.90;;;40.83;;
9948;SDS011;5013;51.840;8.276;2024-02-28T05:32:36;173.30;;;42.77;;
9948;SDS011;5013;51.840;8.276;2024-02-28T05:35:02;276.03;;;43.90;;
9948;SDS011;5013;51.840;8.276;2024-02-28T05:37:28;188.90;;;42.97;;
9948;SDS011;5013;51.840;8.276;2024-02-28T05:39:53;163.80;;;41.07;;
9948;SDS011;5013;51.840;8.276;2024-02-28T05:42:19;142.53;;;40.83;;
9948;SDS011;5013;51.840;8.276;2024-02-28T05:44:49;132.83;;;41.60;;
9948;SDS011;5013;51.840;8.276;2024-02-28T05:47:15;147.30;;;40.33;;
9948;SDS011;5013;51.840;8.276;2024-02-28T05:49:41;181.63;;;43.37;;
9948;SDS011;5013;51.840;8.276;2024-02-28T05:52:07;270.23;;;45.30;;
9948;SDS011;5013;51.840;8.276;2024-02-28T05:54:32;168.83;;;43.83;;
9948;SDS011;5013;51.840;8.276;2024-02-28T05:57:01;125.43;;;41.17;;
9948;SDS011;5013;51.840;8.276;2024-02-28T05:59:26;156.50;;;43.50;;
9948;SDS011;5013;51.840;8.276;2024-02-28T06:01:52;134.33;;;45.40;;
9948;SDS011;5013;51.840;8.276;2024-02-28T06:04:17;162.00;;;43.20;;
9948;SDS011;5013;51.840;8.276;2024-02-28T06:06:43;177.40;;;47.43;;
9948;SDS011;5013;51.840;8.276;2024-02-28T06:09:09;218.03;;;46.53;;
9948;SDS011;5013;51.840;8.276;2024-02-28T06:11:35;202.43;;;45.10;;
9948;SDS011;5013;51.840;8.276;2024-02-28T06:14:01;249.10;;;49.30;;
9948;SDS011;5013;51.840;8.276;2024-02-28T06:16:28;250.17;;;50.43;;
9948;SDS011;5013;51.840;8.276;2024-02-28T06:18:54;161.67;;;48.27;;
9948;SDS011;5013;51.840;8.276;2024-02-28T06:21:21;158.47;;;48.80;;
9948;SDS011;5013;51.840;8.276;2024-02-28T06:23:48;227.97;;;50.53;;
9948;SDS011;5013;51.840;8.276;2024-02-28T06:26:13;129.73;;;45.77;;
9948;SDS011;5013;51.840;8.276;2024-02-28T06:28:45;231.63;;;47.80;;
9948;SDS011;5013;51.840;8.276;2024-02-28T06:31:14;151.00;;;46.13;;
9948;SDS011;5013;51.840;8.276;2024-02-28T06:33:41;139.70;;;45.40;;
9948;SDS011;5013;51.840;8.276;2024-02-28T06:36:07;162.07;;;45.07;;
9948;SDS011;5013;51.840;8.276;2024-02-28T06:38:32;230.47;;;48.60;;
9948;SDS011;5013;51.840;8.276;2024-02-28T06:40:59;242.07;;;50.97;;
9948;SDS011;5013;51.840;8.276;2024-02-28T06:43:28;239.53;;;50.90;;
9948;SDS011;5013;51.840;8.276;2024-02-28T06:45:54;170.53;;;50.07;;
9948;SDS011;5013;51.840;8.276;2024-02-28T06:48:20;178.37;;;48.03;;
9948;SDS011;5013;51.840;8.276;2024-02-28T06:50:45;154.50;;;47.53;;
9948;SDS011;5013;51.840;8.276;2024-02-28T06:53:11;129.27;;;42.90;;
9948;SDS011;5013;51.840;8.276;2024-02-28T06:55:37;188.77;;;47.77;;
9948;SDS011;5013;51.840;8.276;2024-02-28T06:58:02;180.07;;;48.10;;
9948;SDS011;5013;51.840;8.276;2024-02-28T07:00:28;192.83;;;50.03;;
9948;SDS011;5013;51.840;8.276;2024-02-28T07:02:53;160.87;;;46.97;;
9948;SDS011;5013;51.840;8.276;2024-02-28T07:05:19;281.77;;;56.40;;
9948;SDS011;5013;51.840;8.276;2024-02-28T07:07:45;121.77;;;45.90;;
9948;SDS011;5013;51.840;8.276;2024-02-28T07:10:10;234.73;;;51.77;;
9948;SDS011;5013;51.840;8.276;2024-02-28T07:12:36;121.77;;;45.50;;
9948;SDS011;5013;51.840;8.276;2024-02-28T07:15:01;194.43;;;48.83;;
9948;SDS011;5013;51.840;8.276;2024-02-28T07:17:27;208.77;;;51.23;;
9948;SDS011;5013;51.840;8.276;2024-02-28T07:19:53;119.40;;;45.50;;
9948;SDS011;5013;51.840;8.276;2024-02-28T07:22:18;164.80;;;46.20;;
9948;SDS011;5013;51.840;8.276;2024-02-28T07:24:44;191.03;;;50.90;;
9948;SDS011;5013;51.840;8.276;2024-02-28T07:27:10;144.77;;;46.07;;
9948;SDS011;5013;51.840;8.276;2024-02-28T07:29:36;134.57;;;47.00;;
9948;SDS011;5013;51.840;8.276;2024-02-28T07:32:02;207.13;;;50.53;;
9948;SDS011;5013;51.840;8.276;2024-02-28T07:34:28;111.27;;;43.67;;
9948;SDS011;5013;51.840;8.276;2024-02-28T07:36:53;166.90;;;49.67;;
9948;SDS011;5013;51.840;8.276;2024-02-28T07:39:19;143.67;;;49.03;;
9948;SDS011;5013;51.840;8.276;2024-02-28T07:41:46;145.20;;;51.30;;
9948;SDS011;5013;51.840;8.276;2024-02-28T07:44:11;118.27;;;45.97;;
9948;SDS011;5013;51.840;8.276;2024-02-28T07:46:37;157.53;;;48.63;;
9948;SDS011;5013;51.840;8.276;2024-02-28T07:49:02;136.30;;;49.57;;
9948;SDS011;5013;51.840;8.276;2024-02-28T07:51:28;121.20;;;47.03;;
9948;SDS011;5013;51.840;8.276;2024-02-28T07:53:54;132.40;;;49.33;;
9948;SDS011;5013;51.840;8.276;2024-02-28T07:56:20;151.83;;;53.57;;
9948;SDS011;5013;51.840;8.276;2024-02-28T07:58:46;166.07;;;56.40;;
9948;SDS011;5013;51.840;8.276;2024-02-28T08:01:11;151.00;;;53.47;;
9948;SDS011;5013;51.840;8.276;2024-02-28T08:03:37;134.40;;;51.50;;
9948;SDS011;5013;51.840;8.276;2024-02-28T08:06:03;147.47;;;55.37;;
9948;SDS011;5013;51.840;8.276;2024-02-28T08:08:29;138.90;;;52.23;;
9948;SDS011;5013;51.840;8.276;2024-02-28T08:10:55;135.83;;;50.03;;
9948;SDS011;5013;51.840;8.276;2024-02-28T08:13:20;136.33;;;54.77;;
9948;SDS011;5013;51.840;8.276;2024-02-28T08:15:46;126.33;;;52.60;;
9948;SDS011;5013;51.840;8.276;2024-02-28T08:18:11;151.83;;;59.53;;
9948;SDS011;5013;51.840;8.276;2024-02-28T08:20:37;183.27;;;61.10;;
9948;SDS011;5013;51.840;8.276;2024-02-28T08:23:06;188.57;;;62.33;;
9948;SDS011;5013;51.840;8.276;2024-02-28T08:25:33;156.97;;;56.50;;
9948;SDS011;5013;51.840;8.276;2024-02-28T08:27:58;153.90;;;59.80;;
9948;SDS011;5013;51.840;8.276;2024-02-28T08:30:24;158.37;;;58.40;;
9948;SDS011;5013;51.840;8.276;2024-02-28T08:32:50;159.37;;;57.80;;
9948;SDS011;5013;51.840;8.276;2024-02-28T08:35:17;139.67;;;55.23;;
9948;SDS011;5013;51.840;8.276;2024-02-28T08:37:43;157.43;;;57.00;;
9948;SDS011;5013;51.840;8.276;2024-02-28T08:40:09;167.83;;;58.97;;
9948;SDS011;5013;51.840;8.276;2024-02-28T08:42:36;159.70;;;57.90;;
9948;SDS011;5013;51.840;8.276;2024-02-28T08:45:02;194.07;;;63.70;;
9948;SDS011;5013;51.840;8.276;2024-02-28T08:47:28;138.50;;;54.67;;
9948;SDS011;5013;51.840;8.276;2024-02-28T08:49:54;143.00;;;56.50;;
9948;SDS011;5013;51.840;8.276;2024-02-28T08:52:20;175.87;;;60.23;;
9948;SDS011;5013;51.840;8.276;2024-02-28T08:54:46;179.20;;;60.93;;
9948;SDS011;5013;51.840;8.276;2024-02-28T08:57:13;152.20;;;58.63;;
9948;SDS011;5013;51.840;8.276;2024-02-28T08:59:39;166.03;;;58.93;;
9948;SDS011;5013;51.840;8.276;2024-02-28T09:02:05;161.37;;;59.50;;
9948;SDS011;5013;51.840;8.276;2024-02-28T09:04:31;148.47;;;57.10;;
9948;SDS011;5013;51.840;8.276;2024-02-28T09:06:56;187.23;;;60.50;;
9948;SDS011;5013;51.840;8.276;2024-02-28T09:09:22;178.40;;;60.57;;
9948;SDS011;5013;51.840;8.276;2024-02-28T09:11:48;148.17;;;57.67;;
9948;SDS011;5013;51.840;8.276;2024-02-28T09:14:13;136.70;;;55.13;;
9948;SDS011;5013;51.840;8.276;2024-02-28T09:16:39;160.17;;;60.33;;
9948;SDS011;5013;51.840;8.276;2024-02-28T09:19:04;162.47;;;59.73;;
9948;SDS011;5013;51.840;8.276;2024-02-28T09:21:30;144.10;;;57.30;;
9948;SDS011;5013;51.840;8.276;2024-02-28T09:23:56;135.27;;;53.93;;
9948;SDS011;5013;51.840;8.276;2024-02-28T09:26:22;147.53;;;55.77;;
9948;SDS011;5013;51.840;8.276;2024-02-28T09:28:47;139.63;;;56.10;;
9948;SDS011;5013;51.840;8.276;2024-02-28T09:31:13;172.33;;;59.33;;
9948;SDS011;5013;51.840;8.276;2024-02-28T09:33:40;149.47;;;57.33;;
9948;SDS011;5013;51.840;8.276;2024-02-28T09:36:06;155.27;;;56.97;;
9948;SDS011;5013;51.840;8.276;2024-02-28T09:38:31;142.37;;;54.47;;
9948;SDS011;5013;51.840;8.276;2024-02-28T09:40:59;146.70;;;56.60;;
9948;SDS011;5013;51.840;8.276;2024-02-28T09:43:29;164.23;;;58.83;;
9948;SDS011;5013;51.840;8.276;2024-02-28T09:45:57;165.73;;;58.10;;
9948;SDS011;5013;51.840;8.276;2024-02-28T09:48:26;148.63;;;55.13;;
9948;SDS011;5013;51.840;8.276;2024-02-28T09:50:54;143.73;;;57.43;;
9948;SDS011;5013;51.840;8.276;2024-02-28T09:53:20;158.50;;;59.27;;
9948;SDS011;5013;51.840;8.276;2024-02-28T09:55:46;144.83;;;57.00;;
9948;SDS011;5013;51.840;8.276;2024-02-28T09:58:13;153.40;;;57.43;;
9948;SDS011;5013;51.840;8.276;2024-02-28T10:00:40;135.00;;;55.83;;
9948;SDS011;5013;51.840;8.276;2024-02-28T10:03:08;141.73;;;60.23;;
9948;SDS011;5013;51.840;8.276;2024-02-28T10:05:37;125.07;;;53.47;;
9948;SDS011;5013;51.840;8.276;2024-02-28T10:08:04;143.37;;;57.77;;
9948;SDS011;5013;51.840;8.276;2024-02-28T10:10:31;146.57;;;58.10;;
9948;SDS011;5013;51.840;8.276;2024-02-28T10:12:57;141.83;;;56.83;;
9948;SDS011;5013;51.840;8.276;2024-02-28T10:15:24;144.27;;;56.87;;
9948;SDS011;5013;51.840;8.276;2024-02-28T10:17:51;143.67;;;59.40;;
9948;SDS011;5013;51.840;8.276;2024-02-28T10:20:17;128.47;;;54.67;;
9948;SDS011;5013;51.840;8.276;2024-02-28T10:22:42;137.53;;;56.73;;
9948;SDS011;5013;51.840;8.276;2024-02-28T10:25:08;129.70;;;57.13;;
9948;SDS011;5013;51.840;8.276;2024-02-28T10:27:34;116.70;;;52.27;;
9948;SDS011;5013;51.840;8.276;2024-02-28T10:30:01;115.97;;;52.40;;
9948;SDS011;5013;51.840;8.276;2024-02-28T10:32:30;118.23;;;53.70;;
9948;SDS011;5013;51.840;8.276;2024-02-28T10:34:58;111.63;;;53.37;;
9948;SDS011;5013;51.840;8.276;2024-02-28T10:37:25;100.00;;;47.80;;
9948;SDS011;5013;51.840;8.276;2024-02-28T10:39:55;93.87;;;45.33;;
9948;SDS011;5013;51.840;8.276;2024-02-28T10:42:22;83.13;;;42.67;;
9948;SDS011;5013;51.840;8.276;2024-02-28T10:44:51;84.97;;;44.47;;
9948;SDS011;5013;51.840;8.276;2024-02-28T10:47:19;92.53;;;44.27;;
9948;SDS011;5013;51.840;8.276;2024-02-28T10:49:45;92.80;;;45.03;;
9948;SDS011;5013;51.840;8.276;2024-02-28T10:52:11;94.83;;;46.17;;
9948;SDS011;5013;51.840;8.276;2024-02-28T10:54:38;91.03;;;45.03;;
9948;SDS011;5013;51.840;8.276;2024-02-28T10:57:08;86.00;;;43.60;;
9948;SDS011;5013;51.840;8.276;2024-02-28T10:59:37;80.40;;;42.90;;
9948;SDS011;5013;51.840;8.276;2024-02-28T11:02:04;86.27;;;44.13;;
9948;SDS011;5013;51.840;8.276;2024-02-28T11:04:31;85.17;;;43.60;;
9948;SDS011;5013;51.840;8.276;2024-02-28T11:06:57;88.20;;;44.43;;
9948;SDS011;5013;51.840;8.276;2024-02-28T11:09:23;88.23;;;44.60;;
9948;SDS011;5013;51.840;8.276;2024-02-28T11:11:52;87.67;;;45.33;;
9948;SDS011;5013;51.840;8.276;2024-02-28T11:14:18;78.50;;;41.60;;
9948;SDS011;5013;51.840;8.276;2024-02-28T11:17:02;80.30;;;42.93;;
9948;SDS011;5013;51.840;8.276;2024-02-28T11:19:29;83.90;;;42.60;;
9948;SDS011;5013;51.840;8.276;2024-02-28T11:21:56;94.70;;;46.83;;
9948;SDS011;5013;51.840;8.276;2024-02-28T11:24:23;79.40;;;44.67;;
9948;SDS011;5013;51.840;8.276;2024-02-28T11:26:52;90.50;;;47.50;;
9948;SDS011;5013;51.840;8.276;2024-02-28T11:31:50;67.23;;;40.33;;
9948;SDS011;5013;51.840;8.276;2024-02-28T11:34:16;79.93;;;43.30;;
9948;SDS011;5013;51.840;8.276;2024-02-28T11:36:41;76.97;;;40.93;;
9948;SDS011;5013;51.840;8.276;2024-02-28T11:39:07;71.63;;;39.33;;
9948;SDS011;5013;51.840;8.276;2024-02-28T11:41:32;74.60;;;41.73;;
9948;SDS011;5013;51.840;8.276;2024-02-28T11:43:58;71.80;;;40.47;;
9948;SDS011;5013;51.840;8.276;2024-02-28T11:46:24;74.53;;;41.93;;
9948;SDS011;5013;51.840;8.276;2024-02-28T11:48:49;72.63;;;40.03;;
9948;SDS011;5013;51.840;8.276;2024-02-28T11:51:15;71.10;;;41.10;;
9948;SDS011;5013;51.840;8.276;2024-02-28T11:53:41;78.53;;;42.13;;
9948;SDS011;5013;51.840;8.276;2024-02-28T11:56:06;70.50;;;39.73;;
9948;SDS011;5013;51.840;8.276;2024-02-28T11:58:33;76.90;;;37.83;;
9948;SDS011;5013;51.840;8.276;2024-02-28T12:00:58;69.17;;;38.40;;
9948;SDS011;5013;51.840;8.276;2024-02-28T12:03:25;64.47;;;37.77;;
9948;SDS011;5013;51.840;8.276;2024-02-28T12:05:52;74.03;;;40.93;;
9948;SDS011;5013;51.840;8.276;2024-02-28T12:08:18;79.47;;;42.20;;
9948;SDS011;5013;51.840;8.276;2024-02-28T12:10:45;80.20;;;42.03;;
9948;SDS011;5013;51.840;8.276;2024-02-28T12:13:11;75.07;;;42.00;;
9948;SDS011;5013;51.840;8.276;2024-02-28T12:15:40;68.50;;;38.77;;
9948;SDS011;5013;51.840;8.276;2024-02-28T12:18:09;72.63;;;40.70;;
9948;SDS011;5013;51.840;8.276;2024-02-28T12:20:35;72.60;;;41.00;;
9948;SDS011;5013;51.840;8.276;2024-02-28T12:23:03;76.23;;;40.67;;
9948;SDS011;5013;51.840;8.276;2024-02-28T12:25:29;69.57;;;38.10;;
9948;SDS011;5013;51.840;8.276;2024-02-28T12:27:55;72.53;;;40.10;;
9948;SDS011;5013;51.840;8.276;2024-02-28T12:30:20;66.00;;;37.47;;
9948;SDS011;5013;51.840;8.276;2024-02-28T12:32:46;56.90;;;34.50;;
9948;SDS011;5013;51.840;8.276;2024-02-28T12:35:11;62.23;;;35.80;;
9948;SDS011;5013;51.840;8.276;2024-02-28T12:37:37;67.20;;;38.07;;
9948;SDS011;5013;51.840;8.276;2024-02-28T12:40:04;61.20;;;34.43;;
9948;SDS011;5013;51.840;8.276;2024-02-28T12:42:30;62.30;;;37.20;;
9948;SDS011;5013;51.840;8.276;2024-02-28T12:44:59;66.47;;;38.20;;
9948;SDS011;5013;51.840;8.276;2024-02-28T12:47:25;58.20;;;35.20;;
9948;SDS011;5013;51.840;8.276;2024-02-28T12:49:50;58.93;;;35.90;;
9948;SDS011;5013;51.840;8.276;2024-02-28T12:52:16;59.57;;;36.37;;
9948;SDS011;5013;51.840;8.276;2024-02-28T12:54:42;57.93;;;35.60;;
9948;SDS011;5013;51.840;8.276;2024-02-28T12:57:08;62.20;;;36.27;;
9948;SDS011;5013;51.840;8.276;2024-02-28T12:59:34;59.40;;;36.47;;
9948;SDS011;5013;51.840;8.276;2024-02-28T13:02:00;60.77;;;36.57;;
9948;SDS011;5013;51.840;8.276;2024-02-28T13:04:26;60.47;;;36.47;;
9948;SDS011;5013;51.840;8.276;2024-02-28T13:06:53;62.70;;;35.33;;
9948;SDS011;5013;51.840;8.276;2024-02-28T13:09:18;72.33;;;39.17;;
9948;SDS011;5013;51.840;8.276;2024-02-28T13:11:44;57.80;;;33.97;;
9948;SDS011;5013;51.840;8.276;2024-02-28T13:14:10;55.20;;;32.80;;
9948;SDS011;5013;51.840;8.276;2024-02-28T13:16:36;53.47;;;32.73;;
9948;SDS011;5013;51.840;8.276;2024-02-28T13:19:02;58.93;;;34.37;;
9948;SDS011;5013;51.840;8.276;2024-02-28T13:21:29;55.53;;;33.57;;
9948;SDS011;5013;51.840;8.276;2024-02-28T13:23:57;62.03;;;35.77;;
9948;SDS011;5013;51.840;8.276;2024-02-28T13:26:23;55.43;;;33.47;;
9948;SDS011;5013;51.840;8.276;2024-02-28T13:28:49;59.73;;;35.37;;
9948;SDS011;5013;51.840;8.276;2024-02-28T13:31:14;61.80;;;35.53;;
9948;SDS011;5013;51.840;8.276;2024-02-28T13:33:41;55.40;;;33.83;;
9948;SDS011;5013;51.840;8.276;2024-02-28T13:36:06;59.00;;;35.93;;
9948;SDS011;5013;51.840;8.276;2024-02-28T13:38:32;54.90;;;34.50;;
9948;SDS011;5013;51.840;8.276;2024-02-28T13:40:58;60.03;;;37.37;;
9948;SDS011;5013;51.840;8.276;2024-02-28T13:43:24;59.13;;;33.90;;
9948;SDS011;5013;51.840;8.276;2024-02-28T13:45:50;61.17;;;36.20;;
9948;SDS011;5013;51.840;8.276;2024-02-28T13:48:25;60.47;;;35.97;;
9948;SDS011;5013;51.840;8.276;2024-02-28T13:50:52;59.53;;;35.33;;
9948;SDS011;5013;51.840;8.276;2024-02-28T13:53:17;58.07;;;34.43;;
9948;SDS011;5013;51.840;8.276;2024-02-28T13:55:44;60.30;;;35.57;;
9948;SDS011;5013;51.840;8.276;2024-02-28T13:58:13;61.73;;;35.97;;
9948;SDS011;5013;51.840;8.276;2024-02-28T14:00:40;57.07;;;35.20;;
9948;SDS011;5013;51.840;8.276;2024-02-28T14:03:06;58.50;;;34.63;;
9948;SDS011;5013;51.840;8.276;2024-02-28T14:05:32;55.47;;;35.10;;
9948;SDS011;5013;51.840;8.276;2024-02-28T14:07:58;55.33;;;33.70;;
9948;SDS011;5013;51.840;8.276;2024-02-28T14:10:24;56.93;;;35.30;;
9948;SDS011;5013;51.840;8.276;2024-02-28T14:12:52;59.87;;;34.40;;
9948;SDS011;5013;51.840;8.276;2024-02-28T14:15:18;57.30;;;34.03;;
9948;SDS011;5013;51.840;8.276;2024-02-28T14:17:44;59.67;;;35.50;;
9948;SDS011;5013;51.840;8.276;2024-02-28T14:20:09;64.77;;;37.47;;
9948;SDS011;5013;51.840;8.276;2024-02-28T14:22:36;53.83;;;33.67;;
9948;SDS011;5013;51.840;8.276;2024-02-28T14:25:02;60.23;;;35.70;;
9948;SDS011;5013;51.840;8.276;2024-02-28T14:27:29;56.87;;;33.87;;
9948;SDS011;5013;51.840;8.276;2024-02-28T14:29:58;61.77;;;35.73;;
9948;SDS011;5013;51.840;8.276;2024-02-28T14:32:23;63.97;;;37.37;;
9948;SDS011;5013;51.840;8.276;2024-02-28T14:34:49;55.57;;;33.70;;
9948;SDS011;5013;51.840;8.276;2024-02-28T14:37:16;59.83;;;34.33;;
9948;SDS011;5013;51.840;8.276;2024-02-28T14:39:41;60.37;;;34.43;;